59.2F
Current conditions from King Hill
Updated every 5 minutes
 
  Thursday May 26, 2022

Observations for Westford

Westford

44° 37' 38"N, 73° 02' 29"W, Elevation 850 ft.
Eastern Time

Hourly observations for the last 72 hours

Date Time Temperature (°F) Humi-
dity

(%)
Wind
(mph)
Pressure Rain (in)
Air Dew 6 Hour 1 Hr 3 Hr 6 Hr Day
Alt
(in)
Sea
Level

(mb)
Max Min
26 05:00 59.6 51.3 74 SE 1 G 7 30.15 1021.0 0.00
26 04:00 59.3 51.4 75 S 1 G 7 30.17 1021.6 0.00
26 03:00 58.1 50.9 77 S 0 G 8 30.17 1021.7 0.00
26 02:00 55.1 49.7 62.6 50.2 82 SSW 1 G 4 30.18 1022.1 0.00
26 01:00 52.4 49.0 88 Calm 30.20 1022.7 0.00
26 00:00 51.1 48.0 89 Calm 30.21 1022.9 0.00
25 23:00 50.6 47.2 88 Calm 30.21 1023.1 0.00
25 22:00 52.4 47.4 83 Calm 30.22 1023.3 0.00
25 21:00 55.1 47.7 76 Calm 30.22 1023.4 0.00
25 20:00 62.6 51.1 72.4 62.6 66 Calm 30.22 1023.5 0.00
25 19:00 68.8 49.4 50 SSW 0 G 4 30.22 1023.4 0.00
25 18:00 70.4 47.5 44 SSW 0 G 2 30.23 1023.8 0.00
25 17:00 71.2 50.0 47 SSW 2 G 5 30.24 1024.1 0.00
25 16:00 71.5 51.9 50 W 1 G 7 30.26 1024.9 0.00
25 15:00 71.5 50.8 48 WSW 6 G 12 30.28 1025.6 0.00
25 14:00 70.4 50.3 71.2 53.6 49 W 1 G 7 30.30 1026.0 0.00
25 13:00 70.6 50.5 49 WNW 1 G 4 30.31 1026.4 0.00
25 12:00 68.3 47.3 47 SSE 3 G 7 30.33 1027.1 0.00
25 11:00 66.8 44.8 45 WNW 1 G 5 30.34 1027.5 0.00
25 10:00 64.4 46.4 52 N 0 G 7 30.34 1027.6 0.00
25 09:00 60.9 46.9 60 N 1 G 2 30.35 1027.8 0.00
25 08:00 53.6 49.2 53.6 41.3 85 Calm 30.34 1027.4 0.00
25 07:00 44.4 43.3 96 Calm 30.33 1027.0 0.00
25 06:00 41.9 40.6 95 Calm 30.31 1026.5 0.00
25 05:00 41.8 40.2 94 Calm 30.29 1025.8 0.00
25 04:00 42.4 40.2 92 Calm 30.27 1025.3 0.00
25 03:00 45.7 42.1 87 Calm 30.27 1025.3 0.00
25 02:00 48.1 43.5 56.4 43.6 84 N 0 G 1 30.27 1025.2 0.00
25 01:00 45.8 43.9 93 Calm 30.28 1025.5 0.00
25 00:00 43.8 41.6 92 Calm 30.29 1025.7 0.00
24 23:00 44.8 41.2 87 N 0 G 2 30.29 1025.7 0.00
24 22:00 45.7 41.5 85 Calm 30.28 1025.4 0.00
24 21:00 50.1 42.8 76 Calm 30.27 1025.1 0.00
24 20:00 56.4 44.0 65.4 56.4 63 N 0 G 3 30.25 1024.5 0.00
24 19:00 60.2 44.0 55 N 1 G 5 30.25 1024.3 0.00
24 18:00 61.7 42.4 49 NNW 1 G 5 30.25 1024.3 0.00
24 17:00 61.6 43.8 52 WSW 0 G 3 30.25 1024.5 0.00
24 16:00 63.1 43.1 48 WSW 2 G 5 30.26 1024.9 0.00
24 15:00 62.7 42.7 48 W 4 G 8 30.27 1025.0 0.00
24 14:00 64.7 47.7 65.7 49.8 54 W 3 G 10 30.27 1025.1 0.00
24 13:00 64.0 41.7 44 WSW 2 G 5 30.28 1025.5 0.00
24 12:00 61.9 39.8 44 SW 1 G 6 30.30 1026.2 0.00
24 11:00 60.5 41.3 49 NNW 0 G 9 30.33 1027.0 0.00
24 10:00 57.6 39.6 51 NNE 1 G 8 30.33 1027.0 0.00
24 09:00 55.9 40.9 57 NE 3 G 8 30.34 1027.5 0.00
24 08:00 49.8 41.1 49.8 36.7 72 NE 1 G 4 30.35 1027.7 0.00
24 07:00 40.1 39.1 96 Calm 30.34 1027.3 0.00
24 06:00 37.9 36.9 96 Calm 30.32 1026.6 0.00
24 05:00 37.0 35.7 95 Calm 30.31 1026.6 0.00
24 04:00 36.9 35.6 95 Calm 30.31 1026.4 0.00
24 03:00 37.9 36.6 95 Calm 30.30 1026.2 0.00
24 02:00 39.1 37.5 52.5 39.0 94 Calm 30.30 1025.9 0.00
24 01:00 40.0 38.1 93 Calm 30.29 1025.9 0.00
24 00:00 41.8 39.6 92 Calm 30.29 1025.9 0.00
23 23:00 42.7 40.0 90 Calm 30.29 1025.7 0.00
23 22:00 44.3 40.7 87 Calm 30.28 1025.6 0.00
23 21:00 47.3 42.4 83 Calm 30.27 1025.0 0.00
23 20:00 52.5 42.3 61.4 52.5 68 N 0 G 2 30.26 1024.6 0.00
23 19:00 56.5 42.4 59 N 1 G 5 30.25 1024.5 0.00
23 18:00 59.8 40.6 49 NNW 2 G 13 30.24 1024.1 0.00
23 17:00 61.0 43.8 53 NW 1 G 12 30.24 1024.0 0.00
23 16:00 59.8 44.1 56 WNW 2 G 9 30.24 1024.1 0.00
23 15:00 59.8 42.6 53 N 1 G 10 30.24 1024.2 0.00
23 14:00 59.5 43.8 60.0 47.9 56 NNW 2 G 9 30.25 1024.4 0.00
23 13:00 59.4 45.5 60 N 1 G 10 30.25 1024.5 0.00
23 12:00 57.2 42.1 57 W 4 G 8 30.26 1024.7 0.00
23 11:00 56.0 45.2 67 W 2 G 8 30.26 1024.6 0.00
23 10:00 53.1 40.8 63 NW 0 G 8 30.25 1024.3 0.00
23 09:00 51.6 38.6 61 NNW 5 G 10 30.24 1024.1 0.00
23 08:00 48.0 40.1 50.0 45.4 74 WNW 1 G 12 30.23 1023.8 0.00
23 07:00 45.4 41.2 85 NNW 0 G 5 30.21 1023.0 0.00
23 06:00 46.1 41.2 83 NNW 2 G 9 30.19 1022.4 0.00

Data generated by WxSolution Version 1.9.1.7, Build 2018.11.24.


 
 
Current Radar Loop:

Copyright © WestfordWeather.net 2007-2022. All rights reserved.